sensor_id;sensor_type;location;lat;lon;timestamp;temperature;humidity
66144;SHT31;52947;50.842;6.084;2022-11-20T00:00:53;3.14;92.46
66144;SHT31;52947;50.842;6.084;2022-11-20T00:03:21;3.11;92.79
66144;SHT31;52947;50.842;6.084;2022-11-20T00:05:49;3.16;92.59
66144;SHT31;52947;50.842;6.084;2022-11-20T00:08:16;3.22;92.10
66144;SHT31;52947;50.842;6.084;2022-11-20T00:10:44;3.16;91.92
66144;SHT31;52947;50.842;6.084;2022-11-20T00:13:12;3.18;92.51
66144;SHT31;52947;50.842;6.084;2022-11-20T00:15:40;3.16;92.46
66144;SHT31;52947;50.842;6.084;2022-11-20T00:18:09;3.15;92.80
66144;SHT31;52947;50.842;6.084;2022-11-20T00:20:36;3.15;92.82
66144;SHT31;52947;50.842;6.084;2022-11-20T00:23:04;3.18;92.15
66144;SHT31;52947;50.842;6.084;2022-11-20T00:25:33;3.21;92.06
66144;SHT31;52947;50.842;6.084;2022-11-20T00:28:01;3.25;92.30
66144;SHT31;52947;50.842;6.084;2022-11-20T00:30:29;3.22;92.42
66144;SHT31;52947;50.842;6.084;2022-11-20T00:32:57;3.35;91.93
66144;SHT31;52947;50.842;6.084;2022-11-20T00:35:26;3.38;91.33
66144;SHT31;52947;50.842;6.084;2022-11-20T00:37:54;3.35;91.18
66144;SHT31;52947;50.842;6.084;2022-11-20T00:40:22;3.29;91.62
66144;SHT31;52947;50.842;6.084;2022-11-20T00:42:49;3.28;91.96
66144;SHT31;52947;50.842;6.084;2022-11-20T00:45:17;3.34;91.79
66144;SHT31;52947;50.842;6.084;2022-11-20T00:47:45;3.35;90.75
66144;SHT31;52947;50.842;6.084;2022-11-20T00:50:13;3.28;91.06
66144;SHT31;52947;50.842;6.084;2022-11-20T00:52:42;3.25;91.83
66144;SHT31;52947;50.842;6.084;2022-11-20T00:55:10;3.26;91.86
66144;SHT31;52947;50.842;6.084;2022-11-20T00:57:37;3.24;91.90
66144;SHT31;52947;50.842;6.084;2022-11-20T01:00:07;3.19;92.01
66144;SHT31;52947;50.842;6.084;2022-11-20T01:02:34;3.19;92.11
66144;SHT31;52947;50.842;6.084;2022-11-20T01:05:02;3.18;92.44
66144;SHT31;52947;50.842;6.084;2022-11-20T01:07:31;3.22;92.31
66144;SHT31;52947;50.842;6.084;2022-11-20T01:10:00;3.25;92.29
66144;SHT31;52947;50.842;6.084;2022-11-20T01:12:28;3.25;92.42
66144;SHT31;52947;50.842;6.084;2022-11-20T01:14:56;3.24;92.33
66144;SHT31;52947;50.842;6.084;2022-11-20T01:17:24;3.32;92.37
66144;SHT31;52947;50.842;6.084;2022-11-20T01:19:51;3.29;92.15
66144;SHT31;52947;50.842;6.084;2022-11-20T01:22:19;3.22;91.97
66144;SHT31;52947;50.842;6.084;2022-11-20T01:24:47;3.38;92.24
66144;SHT31;52947;50.842;6.084;2022-11-20T01:27:16;3.38;91.16
66144;SHT31;52947;50.842;6.084;2022-11-20T01:29:44;3.29;91.52
66144;SHT31;52947;50.842;6.084;2022-11-20T01:32:12;3.22;91.79
66144;SHT31;52947;50.842;6.084;2022-11-20T01:34:39;3.14;92.05
66144;SHT31;52947;50.842;6.084;2022-11-20T01:37:07;3.16;92.23
66144;SHT31;52947;50.842;6.084;2022-11-20T01:39:35;3.15;92.37
66144;SHT31;52947;50.842;6.084;2022-11-20T01:42:03;3.12;92.61
66144;SHT31;52947;50.842;6.084;2022-11-20T01:44:55;3.18;92.73
66144;SHT31;52947;50.842;6.084;2022-11-20T01:47:30;3.21;92.39
66144;SHT31;52947;50.842;6.084;2022-11-20T01:50:03;3.16;92.39
66144;SHT31;52947;50.842;6.084;2022-11-20T01:52:34;3.24;92.59
66144;SHT31;52947;50.842;6.084;2022-11-20T01:55:06;3.25;92.62
66144;SHT31;52947;50.842;6.084;2022-11-20T01:57:35;3.35;92.66
66144;SHT31;52947;50.842;6.084;2022-11-20T02:00:07;3.40;92.62
66144;SHT31;52947;50.842;6.084;2022-11-20T02:02:39;3.51;92.50
66144;SHT31;52947;50.842;6.084;2022-11-20T02:05:23;3.48;92.28
66144;SHT31;52947;50.842;6.084;2022-11-20T02:07:52;3.43;92.38
66144;SHT31;52947;50.842;6.084;2022-11-20T02:10:21;3.42;92.51
66144;SHT31;52947;50.842;6.084;2022-11-20T02:12:49;3.49;92.61
66144;SHT31;52947;50.842;6.084;2022-11-20T02:15:36;3.42;92.38
66144;SHT31;52947;50.842;6.084;2022-11-20T02:18:05;3.51;92.54
66144;SHT31;52947;50.842;6.084;2022-11-20T02:20:33;3.65;91.10
66144;SHT31;52947;50.842;6.084;2022-11-20T02:23:05;3.70;90.72
66144;SHT31;52947;50.842;6.084;2022-11-20T02:25:36;3.65;90.38
66144;SHT31;52947;50.842;6.084;2022-11-20T02:28:05;3.67;90.77
66144;SHT31;52947;50.842;6.084;2022-11-20T02:30:33;3.73;90.18
66144;SHT31;52947;50.842;6.084;2022-11-20T02:33:01;3.65;90.32
66144;SHT31;52947;50.842;6.084;2022-11-20T02:35:41;3.46;90.80
66144;SHT31;52947;50.842;6.084;2022-11-20T02:38:09;3.38;91.18
66144;SHT31;52947;50.842;6.084;2022-11-20T02:40:39;3.42;91.39
66144;SHT31;52947;50.842;6.084;2022-11-20T02:43:07;3.46;91.32
66144;SHT31;52947;50.842;6.084;2022-11-20T02:45:35;3.59;90.85
66144;SHT31;52947;50.842;6.084;2022-11-20T02:48:05;3.56;90.62
66144;SHT31;52947;50.842;6.084;2022-11-20T02:50:33;3.55;90.95
66144;SHT31;52947;50.842;6.084;2022-11-20T02:53:01;3.53;91.09
66144;SHT31;52947;50.842;6.084;2022-11-20T02:55:28;3.58;90.94
66144;SHT31;52947;50.842;6.084;2022-11-20T02:57:57;3.56;91.21
66144;SHT31;52947;50.842;6.084;2022-11-20T03:00:25;3.60;91.32
66144;SHT31;52947;50.842;6.084;2022-11-20T03:02:53;3.58;91.27
66144;SHT31;52947;50.842;6.084;2022-11-20T03:05:21;3.55;91.94
66144;SHT31;52947;50.842;6.084;2022-11-20T03:07:49;3.52;92.10
66144;SHT31;52947;50.842;6.084;2022-11-20T03:10:17;3.60;91.93
66144;SHT31;52947;50.842;6.084;2022-11-20T03:12:45;3.60;92.14
66144;SHT31;52947;50.842;6.084;2022-11-20T03:15:14;3.65;92.05
66144;SHT31;52947;50.842;6.084;2022-11-20T03:17:42;3.59;92.16
66144;SHT31;52947;50.842;6.084;2022-11-20T03:20:10;3.60;92.17
66144;SHT31;52947;50.842;6.084;2022-11-20T03:22:38;3.59;92.19
66144;SHT31;52947;50.842;6.084;2022-11-20T03:25:06;3.59;92.31
66144;SHT31;52947;50.842;6.084;2022-11-20T03:27:34;3.60;92.51
66144;SHT31;52947;50.842;6.084;2022-11-20T03:30:03;3.63;92.42
66144;SHT31;52947;50.842;6.084;2022-11-20T03:32:33;3.66;92.49
66144;SHT31;52947;50.842;6.084;2022-11-20T03:35:00;3.67;92.41
66144;SHT31;52947;50.842;6.084;2022-11-20T03:37:28;3.76;91.95
66144;SHT31;52947;50.842;6.084;2022-11-20T03:39:56;3.75;91.72
66144;SHT31;52947;50.842;6.084;2022-11-20T03:42:24;3.70;92.05
66144;SHT31;52947;50.842;6.084;2022-11-20T03:45:09;3.79;92.26
66144;SHT31;52947;50.842;6.084;2022-11-20T03:47:38;3.80;92.08
66144;SHT31;52947;50.842;6.084;2022-11-20T03:50:07;3.80;92.28
66144;SHT31;52947;50.842;6.084;2022-11-20T03:52:35;3.83;92.16
66144;SHT31;52947;50.842;6.084;2022-11-20T03:55:03;3.85;92.23
66144;SHT31;52947;50.842;6.084;2022-11-20T03:57:31;3.82;91.88
66144;SHT31;52947;50.842;6.084;2022-11-20T03:59:59;3.82;92.41
66144;SHT31;52947;50.842;6.084;2022-11-20T04:02:30;3.87;92.39
66144;SHT31;52947;50.842;6.084;2022-11-20T04:04:59;3.85;92.34
66144;SHT31;52947;50.842;6.084;2022-11-20T04:07:26;3.91;91.99
66144;SHT31;52947;50.842;6.084;2022-11-20T04:09:54;3.87;91.88
66144;SHT31;52947;50.842;6.084;2022-11-20T04:12:22;4.11;94.30
66144;SHT31;52947;50.842;6.084;2022-11-20T04:14:50;4.93;96.65
66144;SHT31;52947;50.842;6.084;2022-11-20T04:17:18;5.27;94.76
66144;SHT31;52947;50.842;6.084;2022-11-20T04:19:46;5.46;93.61
66144;SHT31;52947;50.842;6.084;2022-11-20T04:22:15;5.48;91.46
66144;SHT31;52947;50.842;6.084;2022-11-20T04:24:43;5.33;89.38
66144;SHT31;52947;50.842;6.084;2022-11-20T04:27:10;5.60;92.35
66144;SHT31;52947;50.842;6.084;2022-11-20T04:29:38;5.75;91.02
66144;SHT31;52947;50.842;6.084;2022-11-20T04:32:06;6.12;92.94
66144;SHT31;52947;50.842;6.084;2022-11-20T04:34:34;6.18;91.66
66144;SHT31;52947;50.842;6.084;2022-11-20T04:37:02;6.21;89.18
66144;SHT31;52947;50.842;6.084;2022-11-20T04:39:31;6.12;89.86
66144;SHT31;52947;50.842;6.084;2022-11-20T04:41:59;6.43;92.07
66144;SHT31;52947;50.842;6.084;2022-11-20T04:44:40;6.30;88.61
66144;SHT31;52947;50.842;6.084;2022-11-20T04:47:08;6.13;88.76
66144;SHT31;52947;50.842;6.084;2022-11-20T04:49:36;6.22;88.41
66144;SHT31;52947;50.842;6.084;2022-11-20T04:52:03;6.34;86.67
66144;SHT31;52947;50.842;6.084;2022-11-20T04:54:33;6.25;86.99
66144;SHT31;52947;50.842;6.084;2022-11-20T04:57:00;6.19;86.04
66144;SHT31;52947;50.842;6.084;2022-11-20T04:59:28;6.22;84.69
66144;SHT31;52947;50.842;6.084;2022-11-20T05:01:56;6.05;84.88
66144;SHT31;52947;50.842;6.084;2022-11-20T05:04:24;6.08;87.17
66144;SHT31;52947;50.842;6.084;2022-11-20T05:06:52;6.12;85.94
66144;SHT31;52947;50.842;6.084;2022-11-20T05:09:20;6.67;89.19
66144;SHT31;52947;50.842;6.084;2022-11-20T05:11:49;6.91;85.58
66144;SHT31;52947;50.842;6.084;2022-11-20T05:14:17;6.95;84.76
66144;SHT31;52947;50.842;6.084;2022-11-20T05:16:45;7.19;84.77
66144;SHT31;52947;50.842;6.084;2022-11-20T05:19:13;7.07;83.86
66144;SHT31;52947;50.842;6.084;2022-11-20T05:21:41;7.21;85.67
66144;SHT31;52947;50.842;6.084;2022-11-20T05:24:09;6.93;82.01
66144;SHT31;52947;50.842;6.084;2022-11-20T05:26:37;6.62;82.06
66144;SHT31;52947;50.842;6.084;2022-11-20T05:29:06;6.13;81.25
66144;SHT31;52947;50.842;6.084;2022-11-20T05:31:34;5.57;82.49
66144;SHT31;52947;50.842;6.084;2022-11-20T05:34:02;4.92;84.44
66144;SHT31;52947;50.842;6.084;2022-11-20T05:36:30;4.65;85.63
66144;SHT31;52947;50.842;6.084;2022-11-20T05:38:58;4.28;87.00
66144;SHT31;52947;50.842;6.084;2022-11-20T05:41:27;4.11;87.91
66144;SHT31;52947;50.842;6.084;2022-11-20T05:43:55;4.04;88.13
66144;SHT31;52947;50.842;6.084;2022-11-20T05:46:25;3.94;88.98
66144;SHT31;52947;50.842;6.084;2022-11-20T05:48:55;3.87;88.95
66144;SHT31;52947;50.842;6.084;2022-11-20T05:51:24;3.79;89.27
66144;SHT31;52947;50.842;6.084;2022-11-20T05:53:52;3.79;89.84
66144;SHT31;52947;50.842;6.084;2022-11-20T05:56:21;3.63;90.33
66144;SHT31;52947;50.842;6.084;2022-11-20T05:58:49;3.58;90.73
66144;SHT31;52947;50.842;6.084;2022-11-20T06:01:18;3.52;91.11
66144;SHT31;52947;50.842;6.084;2022-11-20T06:03:48;3.55;91.16
66144;SHT31;52947;50.842;6.084;2022-11-20T06:06:18;3.51;91.53
66144;SHT31;52947;50.842;6.084;2022-11-20T06:08:46;3.56;91.57
66144;SHT31;52947;50.842;6.084;2022-11-20T06:11:15;3.58;91.08
66144;SHT31;52947;50.842;6.084;2022-11-20T06:13:43;3.53;91.29
66144;SHT31;52947;50.842;6.084;2022-11-20T06:16:15;3.48;91.95
66144;SHT31;52947;50.842;6.084;2022-11-20T06:18:43;3.48;91.45
66144;SHT31;52947;50.842;6.084;2022-11-20T06:21:14;3.52;91.72
66144;SHT31;52947;50.842;6.084;2022-11-20T06:23:43;3.45;91.59
66144;SHT31;52947;50.842;6.084;2022-11-20T06:26:13;3.46;91.60
66144;SHT31;52947;50.842;6.084;2022-11-20T06:28:41;3.42;91.82
66144;SHT31;52947;50.842;6.084;2022-11-20T06:31:11;3.48;91.90
66144;SHT31;52947;50.842;6.084;2022-11-20T06:33:39;3.40;92.01
66144;SHT31;52947;50.842;6.084;2022-11-20T06:36:09;3.36;92.21
66144;SHT31;52947;50.842;6.084;2022-11-20T06:38:38;3.39;92.11
66144;SHT31;52947;50.842;6.084;2022-11-20T06:41:07;3.36;92.37
66144;SHT31;52947;50.842;6.084;2022-11-20T06:43:34;3.32;92.54
66144;SHT31;52947;50.842;6.084;2022-11-20T06:46:02;3.36;92.21
66144;SHT31;52947;50.842;6.084;2022-11-20T06:48:30;3.34;92.34
66144;SHT31;52947;50.842;6.084;2022-11-20T06:50:58;3.38;92.36
66144;SHT31;52947;50.842;6.084;2022-11-20T06:53:26;3.39;92.49
66144;SHT31;52947;50.842;6.084;2022-11-20T06:55:56;3.34;92.38
66144;SHT31;52947;50.842;6.084;2022-11-20T06:58:26;3.34;92.88
66144;SHT31;52947;50.842;6.084;2022-11-20T07:00:58;3.42;93.02
66144;SHT31;52947;50.842;6.084;2022-11-20T07:03:26;3.42;92.69
66144;SHT31;52947;50.842;6.084;2022-11-20T07:05:54;3.45;92.64
66144;SHT31;52947;50.842;6.084;2022-11-20T07:08:23;3.42;92.51
66144;SHT31;52947;50.842;6.084;2022-11-20T07:10:51;3.48;92.49
66144;SHT31;52947;50.842;6.084;2022-11-20T07:13:20;3.45;92.51
66144;SHT31;52947;50.842;6.084;2022-11-20T07:15:48;3.45;92.49
66144;SHT31;52947;50.842;6.084;2022-11-20T07:18:15;3.56;92.33
66144;SHT31;52947;50.842;6.084;2022-11-20T07:20:43;3.59;92.16
66144;SHT31;52947;50.842;6.084;2022-11-20T07:23:11;3.56;91.84
66144;SHT31;52947;50.842;6.084;2022-11-20T07:25:39;3.59;92.10
66144;SHT31;52947;50.842;6.084;2022-11-20T07:28:07;3.66;92.25
66144;SHT31;52947;50.842;6.084;2022-11-20T07:30:38;3.63;91.99
66144;SHT31;52947;50.842;6.084;2022-11-20T07:33:06;3.63;92.14
66144;SHT31;52947;50.842;6.084;2022-11-20T07:35:34;3.65;92.07
66144;SHT31;52947;50.842;6.084;2022-11-20T07:38:02;3.62;92.19
66144;SHT31;52947;50.842;6.084;2022-11-20T07:40:30;3.60;92.28
66144;SHT31;52947;50.842;6.084;2022-11-20T07:42:57;3.65;92.29
66144;SHT31;52947;50.842;6.084;2022-11-20T07:45:25;3.66;92.25
66144;SHT31;52947;50.842;6.084;2022-11-20T07:47:54;3.66;92.13
66144;SHT31;52947;50.842;6.084;2022-11-20T07:50:22;3.63;92.33
66144;SHT31;52947;50.842;6.084;2022-11-20T07:52:50;3.65;92.48
66144;SHT31;52947;50.842;6.084;2022-11-20T07:55:18;3.69;92.50
66144;SHT31;52947;50.842;6.084;2022-11-20T07:57:46;3.75;92.48
66144;SHT31;52947;50.842;6.084;2022-11-20T08:00:21;3.77;92.22
66144;SHT31;52947;50.842;6.084;2022-11-20T08:02:49;3.76;91.91
66144;SHT31;52947;50.842;6.084;2022-11-20T08:05:18;3.77;92.20
66144;SHT31;52947;50.842;6.084;2022-11-20T08:07:46;3.82;92.40
66144;SHT31;52947;50.842;6.084;2022-11-20T08:10:15;3.86;91.78
66144;SHT31;52947;50.842;6.084;2022-11-20T08:12:44;3.91;91.36
66144;SHT31;52947;50.842;6.084;2022-11-20T08:15:30;4.04;91.40
66144;SHT31;52947;50.842;6.084;2022-11-20T08:18:02;4.08;91.65
66144;SHT31;52947;50.842;6.084;2022-11-20T08:20:52;4.14;91.34
66144;SHT31;52947;50.842;6.084;2022-11-20T08:23:20;4.16;91.61
66144;SHT31;52947;50.842;6.084;2022-11-20T08:25:49;4.17;91.09
66144;SHT31;52947;50.842;6.084;2022-11-20T08:28:17;4.22;90.31
66144;SHT31;52947;50.842;6.084;2022-11-20T08:30:47;4.30;90.15
66144;SHT31;52947;50.842;6.084;2022-11-20T08:33:16;4.24;90.30
66144;SHT31;52947;50.842;6.084;2022-11-20T08:35:45;4.24;90.17
66144;SHT31;52947;50.842;6.084;2022-11-20T08:38:14;4.25;90.11
66144;SHT31;52947;50.842;6.084;2022-11-20T08:40:42;4.35;89.96
66144;SHT31;52947;50.842;6.084;2022-11-20T08:43:31;4.41;89.09
66144;SHT31;52947;50.842;6.084;2022-11-20T08:46:00;4.41;89.17
66144;SHT31;52947;50.842;6.084;2022-11-20T08:48:27;4.52;89.26
66144;SHT31;52947;50.842;6.084;2022-11-20T08:50:57;4.47;89.21
66144;SHT31;52947;50.842;6.084;2022-11-20T08:53:26;4.48;89.68
66144;SHT31;52947;50.842;6.084;2022-11-20T08:55:56;4.59;89.17
66144;SHT31;52947;50.842;6.084;2022-11-20T08:58:24;4.73;89.49
66144;SHT31;52947;50.842;6.084;2022-11-20T09:00:52;4.68;88.67
66144;SHT31;52947;50.842;6.084;2022-11-20T09:03:20;4.73;88.38
66144;SHT31;52947;50.842;6.084;2022-11-20T09:05:48;4.80;88.68
66144;SHT31;52947;50.842;6.084;2022-11-20T09:08:16;4.79;88.26
66144;SHT31;52947;50.842;6.084;2022-11-20T09:10:51;4.90;87.77
66144;SHT31;52947;50.842;6.084;2022-11-20T09:13:22;4.97;87.37
66144;SHT31;52947;50.842;6.084;2022-11-20T09:15:53;4.96;87.60
66144;SHT31;52947;50.842;6.084;2022-11-20T09:18:21;4.83;87.47
66144;SHT31;52947;50.842;6.084;2022-11-20T09:20:49;4.90;87.72
66144;SHT31;52947;50.842;6.084;2022-11-20T09:23:20;4.93;88.21
66144;SHT31;52947;50.842;6.084;2022-11-20T09:25:49;5.00;87.84
66144;SHT31;52947;50.842;6.084;2022-11-20T09:28:16;5.00;87.74
66144;SHT31;52947;50.842;6.084;2022-11-20T09:30:45;4.97;87.36
66144;SHT31;52947;50.842;6.084;2022-11-20T09:33:12;4.99;87.89
66144;SHT31;52947;50.842;6.084;2022-11-20T09:35:40;5.00;88.25
66144;SHT31;52947;50.842;6.084;2022-11-20T09:38:10;5.06;87.62
66144;SHT31;52947;50.842;6.084;2022-11-20T09:40:43;5.15;88.04
66144;SHT31;52947;50.842;6.084;2022-11-20T09:43:16;5.15;87.88
66144;SHT31;52947;50.842;6.084;2022-11-20T09:46:04;5.27;88.42
66144;SHT31;52947;50.842;6.084;2022-11-20T09:51:37;5.31;87.73
66144;SHT31;52947;50.842;6.084;2022-11-20T09:54:16;5.39;88.00
66144;SHT31;52947;50.842;6.084;2022-11-20T09:56:47;5.46;88.00
66144;SHT31;52947;50.842;6.084;2022-11-20T09:59:34;5.57;87.56
66144;SHT31;52947;50.842;6.084;2022-11-20T10:02:12;5.67;86.78
66144;SHT31;52947;50.842;6.084;2022-11-20T10:04:45;5.64;86.91
66144;SHT31;52947;50.842;6.084;2022-11-20T10:07:18;5.71;86.78
66144;SHT31;52947;50.842;6.084;2022-11-20T10:09:59;5.62;87.09
66144;SHT31;52947;50.842;6.084;2022-11-20T10:12:33;5.64;87.63
66144;SHT31;52947;50.842;6.084;2022-11-20T10:15:14;5.70;87.57
66144;SHT31;52947;50.842;6.084;2022-11-20T10:17:58;5.67;87.29
66144;SHT31;52947;50.842;6.084;2022-11-20T10:20:35;5.64;87.89
66144;SHT31;52947;50.842;6.084;2022-11-20T10:23:25;5.70;88.24
66144;SHT31;52947;50.842;6.084;2022-11-20T10:25:55;5.77;87.79
66144;SHT31;52947;50.842;6.084;2022-11-20T10:28:39;5.77;87.78
66144;SHT31;52947;50.842;6.084;2022-11-20T10:31:30;5.94;87.25
66144;SHT31;52947;50.842;6.084;2022-11-20T10:34:02;6.01;87.59
66144;SHT31;52947;50.842;6.084;2022-11-20T10:36:42;6.13;87.38
66144;SHT31;52947;50.842;6.084;2022-11-20T10:39:17;6.12;87.57
66144;SHT31;52947;50.842;6.084;2022-11-20T10:41:50;6.18;87.43
66144;SHT31;52947;50.842;6.084;2022-11-20T10:44:20;6.22;88.01
66144;SHT31;52947;50.842;6.084;2022-11-20T10:47:05;6.33;87.49
66144;SHT31;52947;50.842;6.084;2022-11-20T10:49:33;6.34;87.38
66144;SHT31;52947;50.842;6.084;2022-11-20T10:52:09;6.40;87.30
66144;SHT31;52947;50.842;6.084;2022-11-20T10:54:43;6.42;87.37
66144;SHT31;52947;50.842;6.084;2022-11-20T10:57:24;6.42;87.85
66144;SHT31;52947;50.842;6.084;2022-11-20T11:00:00;6.40;87.72
66144;SHT31;52947;50.842;6.084;2022-11-20T11:02:39;6.50;87.98
66144;SHT31;52947;50.842;6.084;2022-11-20T11:05:20;6.67;87.69
66144;SHT31;52947;50.842;6.084;2022-11-20T11:07:54;6.79;87.51
66144;SHT31;52947;50.842;6.084;2022-11-20T11:10:24;6.95;87.33
66144;SHT31;52947;50.842;6.084;2022-11-20T11:12:53;7.02;86.78
66144;SHT31;52947;50.842;6.084;2022-11-20T11:15:27;7.19;86.83
66144;SHT31;52947;50.842;6.084;2022-11-20T11:17:56;7.34;86.60
66144;SHT31;52947;50.842;6.084;2022-11-20T11:20:25;7.52;85.98
66144;SHT31;52947;50.842;6.084;2022-11-20T11:22:54;7.67;85.45
66144;SHT31;52947;50.842;6.084;2022-11-20T11:25:28;7.79;85.48
66144;SHT31;52947;50.842;6.084;2022-11-20T11:27:59;7.86;84.84
66144;SHT31;52947;50.842;6.084;2022-11-20T11:30:29;7.93;84.73
66144;SHT31;52947;50.842;6.084;2022-11-20T11:33:09;7.97;84.89
66144;SHT31;52947;50.842;6.084;2022-11-20T11:35:44;7.96;85.06
66144;SHT31;52947;50.842;6.084;2022-11-20T11:38:21;7.98;84.78
66144;SHT31;52947;50.842;6.084;2022-11-20T11:40:49;8.07;85.08
66144;SHT31;52947;50.842;6.084;2022-11-20T11:43:21;8.06;85.27
66144;SHT31;52947;50.842;6.084;2022-11-20T11:46:29;8.14;85.03
66144;SHT31;52947;50.842;6.084;2022-11-20T11:49:00;8.10;85.19
66144;SHT31;52947;50.842;6.084;2022-11-20T11:51:33;8.10;85.35
66144;SHT31;52947;50.842;6.084;2022-11-20T11:54:09;8.14;85.47
66144;SHT31;52947;50.842;6.084;2022-11-20T11:56:39;8.17;85.31
66144;SHT31;52947;50.842;6.084;2022-11-20T11:59:11;8.17;85.79
66144;SHT31;52947;50.842;6.084;2022-11-20T12:01:43;8.37;85.39
66144;SHT31;52947;50.842;6.084;2022-11-20T12:04:23;8.48;85.32
66144;SHT31;52947;50.842;6.084;2022-11-20T12:07:00;8.45;84.69
66144;SHT31;52947;50.842;6.084;2022-11-20T12:09:52;8.41;84.80
66144;SHT31;52947;50.842;6.084;2022-11-20T12:12:24;8.42;84.70
66144;SHT31;52947;50.842;6.084;2022-11-20T12:14:55;8.51;84.76
66144;SHT31;52947;50.842;6.084;2022-11-20T12:17:24;8.49;84.40
66144;SHT31;52947;50.842;6.084;2022-11-20T12:19:53;8.42;84.46
66144;SHT31;52947;50.842;6.084;2022-11-20T12:22:29;8.41;84.09
66144;SHT31;52947;50.842;6.084;2022-11-20T12:25:02;8.38;84.34
66144;SHT31;52947;50.842;6.084;2022-11-20T12:27:43;8.35;84.51
66144;SHT31;52947;50.842;6.084;2022-11-20T12:30:13;8.35;84.17
66144;SHT31;52947;50.842;6.084;2022-11-20T12:33:04;8.30;84.41
66144;SHT31;52947;50.842;6.084;2022-11-20T12:35:47;8.30;84.55
66144;SHT31;52947;50.842;6.084;2022-11-20T12:38:36;8.27;84.39
66144;SHT31;52947;50.842;6.084;2022-11-20T12:41:13;8.31;84.52
66144;SHT31;52947;50.842;6.084;2022-11-20T12:44:14;8.35;84.43
66144;SHT31;52947;50.842;6.084;2022-11-20T12:47:07;8.41;83.96
66144;SHT31;52947;50.842;6.084;2022-11-20T12:49:43;8.47;83.72
66144;SHT31;52947;50.842;6.084;2022-11-20T12:52:30;8.55;83.42
66144;SHT31;52947;50.842;6.084;2022-11-20T12:55:10;8.55;83.05
66144;SHT31;52947;50.842;6.084;2022-11-20T12:57:45;8.59;83.04
66144;SHT31;52947;50.842;6.084;2022-11-20T13:00:18;8.61;82.74
66144;SHT31;52947;50.842;6.084;2022-11-20T13:05:59;8.62;82.82
66144;SHT31;52947;50.842;6.084;2022-11-20T13:08:31;8.65;82.29
66144;SHT31;52947;50.842;6.084;2022-11-20T13:11:07;8.62;82.00
66144;SHT31;52947;50.842;6.084;2022-11-20T13:13:44;8.55;82.29
66144;SHT31;52947;50.842;6.084;2022-11-20T13:16:17;8.56;82.52
66144;SHT31;52947;50.842;6.084;2022-11-20T13:18:47;8.56;82.84
66144;SHT31;52947;50.842;6.084;2022-11-20T13:21:16;8.65;82.46
66144;SHT31;52947;50.842;6.084;2022-11-20T13:23:46;8.64;82.44
66144;SHT31;52947;50.842;6.084;2022-11-20T13:26:19;8.61;81.92
66144;SHT31;52947;50.842;6.084;2022-11-20T13:29:09;8.61;81.81
66144;SHT31;52947;50.842;6.084;2022-11-20T13:31:42;8.64;81.93
66144;SHT31;52947;50.842;6.084;2022-11-20T13:34:14;8.52;82.26
66144;SHT31;52947;50.842;6.084;2022-11-20T13:36:52;8.56;82.57
66144;SHT31;52947;50.842;6.084;2022-11-20T13:39:26;8.49;82.43
66144;SHT31;52947;50.842;6.084;2022-11-20T13:41:55;8.47;81.99
66144;SHT31;52947;50.842;6.084;2022-11-20T13:44:27;8.45;81.90
66144;SHT31;52947;50.842;6.084;2022-11-20T13:46:56;8.44;81.63
66144;SHT31;52947;50.842;6.084;2022-11-20T13:49:28;8.42;81.53
66144;SHT31;52947;50.842;6.084;2022-11-20T13:52:04;8.38;81.73
66144;SHT31;52947;50.842;6.084;2022-11-20T13:54:55;8.30;81.56
66144;SHT31;52947;50.842;6.084;2022-11-20T13:57:57;8.27;81.37
66144;SHT31;52947;50.842;6.084;2022-11-20T14:00:27;8.23;81.20
66144;SHT31;52947;50.842;6.084;2022-11-20T14:03:04;8.16;80.89
66144;SHT31;52947;50.842;6.084;2022-11-20T14:05:35;8.10;80.72
66144;SHT31;52947;50.842;6.084;2022-11-20T14:08:04;8.01;81.36
66144;SHT31;52947;50.842;6.084;2022-11-20T14:10:34;7.93;82.08
66144;SHT31;52947;50.842;6.084;2022-11-20T14:13:15;7.86;82.86
66144;SHT31;52947;50.842;6.084;2022-11-20T14:15:45;7.82;82.73
66144;SHT31;52947;50.842;6.084;2022-11-20T14:18:14;7.76;83.22
66144;SHT31;52947;50.842;6.084;2022-11-20T14:20:42;7.59;82.68
66144;SHT31;52947;50.842;6.084;2022-11-20T14:23:10;7.46;82.09
66144;SHT31;52947;50.842;6.084;2022-11-20T14:25:45;7.29;83.45
66144;SHT31;52947;50.842;6.084;2022-11-20T14:28:21;7.21;84.60
66144;SHT31;52947;50.842;6.084;2022-11-20T14:30:56;7.14;84.99
66144;SHT31;52947;50.842;6.084;2022-11-20T14:33:25;7.11;85.18
66144;SHT31;52947;50.842;6.084;2022-11-20T14:35:55;7.09;85.53
66144;SHT31;52947;50.842;6.084;2022-11-20T14:38:26;7.04;85.44
66144;SHT31;52947;50.842;6.084;2022-11-20T14:41:05;7.00;86.14
66144;SHT31;52947;50.842;6.084;2022-11-20T14:43:33;6.91;86.51
66144;SHT31;52947;50.842;6.084;2022-11-20T14:46:03;6.90;86.68
66144;SHT31;52947;50.842;6.084;2022-11-20T14:48:35;6.95;86.79
66144;SHT31;52947;50.842;6.084;2022-11-20T14:51:04;6.90;87.23
66144;SHT31;52947;50.842;6.084;2022-11-20T14:53:32;6.88;87.35
66144;SHT31;52947;50.842;6.084;2022-11-20T14:56:02;6.83;87.77
66144;SHT31;52947;50.842;6.084;2022-11-20T14:58:32;6.69;88.71
66144;SHT31;52947;50.842;6.084;2022-11-20T15:01:03;6.81;88.42
66144;SHT31;52947;50.842;6.084;2022-11-20T15:03:32;6.71;88.65
66144;SHT31;52947;50.842;6.084;2022-11-20T15:06:01;6.71;88.94
66144;SHT31;52947;50.842;6.084;2022-11-20T15:08:29;6.69;89.49
66144;SHT31;52947;50.842;6.084;2022-11-20T15:10:58;6.62;89.61
66144;SHT31;52947;50.842;6.084;2022-11-20T15:13:30;6.60;90.06
66144;SHT31;52947;50.842;6.084;2022-11-20T15:16:00;6.53;90.44
66144;SHT31;52947;50.842;6.084;2022-11-20T15:18:31;6.49;90.42
66144;SHT31;52947;50.842;6.084;2022-11-20T15:21:02;6.47;90.71
66144;SHT31;52947;50.842;6.084;2022-11-20T15:23:30;6.46;90.61
66144;SHT31;52947;50.842;6.084;2022-11-20T15:25:58;6.54;90.37
66144;SHT31;52947;50.842;6.084;2022-11-20T15:28:30;6.54;90.42
66144;SHT31;52947;50.842;6.084;2022-11-20T15:30:59;6.50;90.34
66144;SHT31;52947;50.842;6.084;2022-11-20T15:33:29;6.52;90.40
66144;SHT31;52947;50.842;6.084;2022-11-20T15:35:57;6.54;90.11
66144;SHT31;52947;50.842;6.084;2022-11-20T15:38:25;6.54;89.93
66144;SHT31;52947;50.842;6.084;2022-11-20T15:40:53;6.56;90.30
66144;SHT31;52947;50.842;6.084;2022-11-20T15:43:21;6.52;90.19
66144;SHT31;52947;50.842;6.084;2022-11-20T15:45:54;6.64;89.94
66144;SHT31;52947;50.842;6.084;2022-11-20T15:48:29;6.60;89.76
66144;SHT31;52947;50.842;6.084;2022-11-20T15:50:59;6.50;90.12
66144;SHT31;52947;50.842;6.084;2022-11-20T15:53:28;6.43;90.23
66144;SHT31;52947;50.842;6.084;2022-11-20T15:55:56;6.49;90.33
66144;SHT31;52947;50.842;6.084;2022-11-20T15:58:25;6.47;90.43
66144;SHT31;52947;50.842;6.084;2022-11-20T16:00:55;6.47;90.24
66144;SHT31;52947;50.842;6.084;2022-11-20T16:03:24;6.42;90.81
66144;SHT31;52947;50.842;6.084;2022-11-20T16:05:52;6.42;90.72
66144;SHT31;52947;50.842;6.084;2022-11-20T16:08:20;6.42;90.98
66144;SHT31;52947;50.842;6.084;2022-11-20T16:10:48;6.40;90.78
66144;SHT31;52947;50.842;6.084;2022-11-20T16:13:17;6.44;90.09
66144;SHT31;52947;50.842;6.084;2022-11-20T16:16:05;6.42;90.52